createdAt,value
2018-06-08T00:03:28.419Z,96.50
2018-06-08T00:06:01.566Z,96.60
2018-06-08T00:08:30.899Z,96.60
2018-06-08T07:49:46.759Z,79.80
2018-06-08T07:52:15.815Z,84.00
2018-06-08T07:54:44.905Z,87.80
2018-06-08T07:57:13.818Z,90.70
2018-06-08T07:59:42.761Z,90.90
2018-06-08T08:02:11.744Z,91.20
2018-06-08T08:04:40.618Z,91.50
2018-06-08T08:07:09.640Z,91.80
2018-06-08T08:09:38.706Z,91.90
2018-06-08T08:12:07.631Z,91.30
2018-06-08T08:14:36.623Z,91.40
2018-06-08T08:17:05.546Z,91.50
2018-06-08T08:19:34.726Z,91.10
2018-06-08T08:22:03.778Z,91.50
2018-06-08T08:24:32.811Z,91.70
2018-06-08T08:27:01.931Z,91.90
2018-06-08T08:29:31.308Z,90.90
2018-06-08T08:32:00.654Z,91.30
2018-06-08T08:34:30.389Z,92.00
2018-06-08T08:37:00.605Z,92.20
2018-06-08T08:39:30.425Z,91.30
2018-06-08T08:42:13.023Z,91.20
2018-06-08T08:44:47.887Z,91.90
2018-06-08T08:47:17.653Z,91.80
2018-06-08T08:49:47.447Z,91.00
2018-06-08T08:52:17.094Z,91.10
2018-06-08T08:54:46.678Z,92.10
2018-06-08T08:57:16.312Z,90.20
2018-06-08T08:59:48.430Z,90.30
2018-06-08T09:02:18.700Z,89.80
2018-06-08T09:04:49.602Z,89.40
2018-06-08T09:07:18.984Z,89.80
2018-06-08T09:13:36.657Z,82.60
2018-06-08T09:18:33.985Z,85.50
2018-06-08T09:21:01.949Z,86.20
2018-06-08T09:23:30.027Z,87.10
2018-06-08T09:25:57.946Z,87.00
2018-06-08T09:28:26.227Z,86.30
2018-06-08T09:30:54.142Z,86.60
2018-06-08T09:33:22.016Z,86.40
2018-06-08T09:35:49.903Z,86.30
2018-06-08T09:38:18.224Z,87.10
2018-06-08T09:40:46.155Z,87.60
2018-06-08T09:43:18.391Z,87.00
2018-06-08T09:45:46.500Z,86.80
2018-06-08T09:50:43.126Z,86.90
2018-06-08T09:53:11.788Z,87.20
2018-06-08T09:55:39.972Z,86.80
2018-06-08T09:58:08.009Z,87.00
2018-06-08T10:00:41.389Z,87.20
2018-06-08T10:03:10.360Z,87.50
2018-06-08T10:08:06.825Z,90.10
2018-06-08T10:10:35.208Z,90.50
2018-06-08T10:13:03.253Z,90.30
2018-06-08T10:15:31.067Z,90.60
2018-06-08T10:17:59.335Z,90.60
2018-06-08T10:20:27.803Z,90.30
2018-06-08T10:22:55.695Z,90.10
2018-06-08T10:25:23.910Z,90.00
2018-06-08T10:27:51.752Z,90.40
2018-06-08T10:30:19.700Z,90.10
2018-06-08T10:32:47.837Z,90.10
2018-06-08T10:37:43.774Z,89.80
2018-06-08T10:40:11.822Z,89.90
2018-06-08T10:42:40.136Z,89.50
2018-06-08T10:45:08.123Z,89.60
2018-06-08T10:47:36.088Z,88.70
2018-06-08T10:50:04.376Z,88.30
2018-06-08T10:52:33.704Z,86.30
2018-06-08T10:55:01.901Z,87.50
2018-06-08T10:57:32.038Z,86.40
2018-06-08T11:00:00.436Z,86.10
2018-06-08T11:02:29.526Z,85.00
2018-06-08T11:04:58.411Z,85.60
2018-06-08T11:07:26.746Z,84.40
2018-06-08T11:09:57.002Z,85.10
2018-06-08T11:12:25.835Z,83.80
2018-06-08T11:14:53.869Z,83.40
2018-06-08T11:17:23.254Z,83.80
2018-06-08T11:19:52.556Z,84.00
2018-06-08T11:24:48.439Z,83.20
2018-06-08T11:27:17.816Z,82.20
2018-06-08T11:29:57.422Z,82.20
2018-06-08T11:32:25.456Z,82.40
2018-06-08T11:34:53.478Z,81.70
2018-06-08T11:37:27.451Z,81.30
2018-06-08T11:39:57.205Z,81.60
2018-06-08T11:42:33.571Z,81.90
2018-06-08T11:45:01.504Z,82.80
2018-06-08T11:47:30.237Z,81.90
2018-06-08T11:50:02.394Z,82.60
2018-06-08T11:52:30.344Z,82.40
2018-06-08T11:54:58.900Z,82.20
2018-06-08T11:57:27.001Z,83.40
2018-06-08T11:59:54.996Z,82.50
2018-06-08T12:02:23.800Z,82.40
2018-06-08T12:04:56.403Z,82.00
2018-06-08T12:07:30.287Z,82.50
2018-06-08T12:09:58.384Z,82.00
2018-06-08T12:12:27.161Z,82.40
2018-06-08T12:14:59.858Z,81.90
2018-06-08T12:17:32.235Z,81.60
2018-06-08T12:20:04.260Z,80.90
2018-06-08T12:22:32.371Z,80.20
2018-06-08T12:25:07.940Z,79.70
2018-06-08T12:27:37.064Z,79.30
2018-06-08T12:30:05.899Z,79.00
2018-06-08T12:32:36.465Z,77.50
2018-06-08T12:35:06.759Z,76.70
2018-06-08T12:37:35.730Z,73.80
2018-06-08T12:40:05.185Z,72.80
2018-06-08T12:42:33.561Z,73.90
2018-06-08T12:45:02.297Z,72.10
2018-06-08T12:47:30.223Z,69.00
2018-06-08T12:49:58.256Z,65.80
2018-06-08T12:52:26.120Z,63.50
2018-06-08T12:54:54.318Z,63.50
2018-06-08T12:59:09.511Z,68.90
2018-06-08T13:01:38.188Z,68.60
2018-06-08T13:04:07.364Z,56.40
2018-06-08T13:06:36.376Z,48.20
2018-06-08T13:09:07.410Z,46.20
2018-06-08T13:11:37.112Z,46.40
2018-06-08T13:14:06.129Z,48.40
2018-06-08T13:16:35.129Z,49.00
2018-06-08T13:19:04.167Z,48.80
2018-06-08T13:21:34.525Z,50.30
2018-06-08T13:24:03.514Z,54.20
2018-06-08T13:26:32.537Z,52.70
2018-06-08T13:29:01.464Z,54.40
2018-06-08T13:31:30.349Z,56.40
2018-06-08T13:33:59.232Z,56.80
2018-06-08T13:36:28.141Z,57.30
2018-06-08T13:38:57.081Z,57.80
2018-06-08T13:41:26.783Z,57.10
2018-06-08T13:43:55.782Z,59.20
2018-06-08T13:46:35.749Z,58.50
2018-06-08T13:51:33.276Z,56.60
2018-06-08T13:54:04.523Z,60.00
2018-06-08T13:56:33.619Z,59.90
2018-06-08T13:59:02.484Z,59.10
2018-06-08T14:01:31.411Z,59.20
2018-06-08T14:04:00.290Z,59.40
2018-06-08T14:06:29.204Z,58.50
2018-06-08T14:08:58.181Z,56.60
2018-06-08T14:11:27.084Z,54.60
2018-06-08T14:13:56.038Z,53.30
2018-06-08T14:16:25.038Z,53.40
2018-06-08T14:18:54.015Z,52.40
2018-06-08T14:21:22.907Z,52.60
2018-06-08T14:23:51.792Z,52.30
2018-06-08T14:26:20.723Z,52.70
2018-06-08T14:28:49.606Z,53.20
2018-06-08T14:31:18.498Z,53.90
2018-06-08T14:33:47.410Z,56.00
2018-06-08T14:36:16.262Z,57.00
2018-06-08T14:38:45.197Z,58.40
2018-06-08T14:41:14.085Z,59.70
2018-06-08T14:43:42.948Z,61.10
2018-06-08T14:46:11.878Z,63.20
2018-06-08T14:48:40.747Z,65.80
2018-06-08T14:51:09.679Z,67.20
2018-06-08T14:53:38.589Z,66.30
2018-06-08T14:56:07.647Z,65.40
2018-06-08T14:58:36.519Z,63.90
2018-06-08T15:01:05.863Z,65.40
2018-06-08T15:03:34.711Z,65.60
2018-06-08T15:06:03.614Z,63.30
2018-06-08T15:08:32.550Z,62.50
2018-06-08T15:11:01.434Z,63.80
2018-06-08T15:13:30.272Z,63.90
2018-06-08T15:15:59.163Z,66.60
2018-06-08T15:18:28.050Z,65.30
2018-06-08T15:20:56.980Z,65.90
2018-06-08T15:23:25.865Z,64.80
2018-06-08T15:25:54.726Z,66.60
2018-06-08T15:28:23.613Z,66.50
2018-06-08T15:30:52.474Z,66.10
2018-06-08T15:33:21.412Z,66.70
2018-06-08T15:35:50.357Z,66.50
2018-06-08T15:38:19.295Z,66.40
2018-06-08T15:40:48.164Z,66.00
2018-06-08T15:43:17.174Z,64.80
2018-06-08T15:45:46.010Z,65.50
2018-06-08T15:48:14.901Z,64.90
2018-06-08T15:50:43.987Z,65.00
2018-06-08T15:53:12.909Z,66.40
2018-06-08T15:55:41.908Z,66.90
2018-06-08T15:58:10.872Z,67.30
2018-06-08T16:00:39.776Z,66.40
2018-06-08T16:03:08.714Z,67.30
2018-06-08T16:05:37.636Z,66.70
2018-06-08T16:08:06.657Z,66.80
2018-06-08T16:10:35.572Z,67.00
2018-06-08T16:13:04.444Z,67.20
2018-06-08T16:15:33.379Z,67.70
2018-06-08T16:18:02.313Z,67.50
2018-06-08T16:20:31.232Z,66.90
2018-06-08T16:23:00.160Z,67.00
2018-06-08T16:25:29.304Z,65.90
2018-06-08T16:27:58.260Z,66.00
2018-06-08T16:30:27.212Z,66.40
2018-06-08T16:32:56.094Z,66.10
2018-06-08T16:35:24.948Z,66.90
2018-06-08T16:37:53.806Z,66.70
2018-06-08T16:40:22.845Z,67.40
2018-06-08T16:42:51.744Z,66.30
2018-06-08T16:45:20.675Z,67.70
2018-06-08T16:47:49.654Z,68.20
2018-06-08T16:50:18.520Z,68.60
2018-06-08T16:52:47.444Z,68.60
2018-06-08T16:55:16.321Z,69.60
2018-06-08T16:57:45.244Z,69.30
2018-06-08T17:00:14.069Z,69.70
2018-06-08T17:02:42.957Z,70.30
2018-06-08T17:05:12.553Z,70.40
2018-06-08T17:07:41.703Z,70.40
2018-06-08T17:10:10.570Z,70.70
2018-06-08T17:12:39.633Z,71.00
2018-06-08T17:15:08.744Z,71.40
2018-06-08T17:17:37.611Z,71.50
2018-06-08T17:20:06.488Z,70.90
2018-06-08T17:22:35.822Z,71.30
2018-06-08T17:25:04.685Z,70.90
2018-06-08T17:27:33.633Z,70.90
2018-06-08T17:30:02.556Z,71.30
2018-06-08T17:32:31.454Z,71.70
2018-06-08T17:35:00.305Z,72.40
2018-06-08T17:37:29.304Z,72.40
2018-06-08T17:39:58.381Z,72.50
2018-06-08T17:42:27.364Z,72.80
2018-06-08T17:44:56.233Z,72.60
2018-06-08T17:47:25.146Z,73.00
2018-06-08T17:49:54.066Z,74.90
2018-06-08T17:52:22.916Z,76.80
2018-06-08T17:54:52.032Z,77.20
2018-06-08T17:57:21.021Z,78.30
2018-06-08T17:59:50.065Z,78.90
2018-06-08T18:02:19.084Z,79.50
2018-06-08T18:04:48.106Z,79.90
2018-06-08T18:07:17.063Z,80.30
2018-06-08T18:09:46.131Z,80.50
2018-06-08T18:12:15.012Z,80.80
2018-06-08T18:14:44.001Z,81.20
2018-06-08T18:17:12.918Z,81.90
2018-06-08T18:19:41.785Z,81.90
2018-06-08T18:22:10.700Z,82.50
2018-06-08T18:24:39.800Z,83.10
2018-06-08T18:27:08.682Z,83.30
2018-06-08T18:29:38.233Z,83.50
2018-06-08T18:32:07.216Z,83.50
2018-06-08T18:34:36.119Z,83.60
2018-06-08T18:37:05.385Z,83.60
2018-06-08T18:39:34.397Z,83.50
2018-06-08T18:47:01.014Z,83.90
2018-06-08T18:49:29.955Z,83.90
2018-06-08T18:51:59.674Z,83.20
2018-06-08T18:54:28.791Z,84.30
2018-06-08T18:56:57.866Z,84.70
2018-06-08T18:59:26.935Z,84.50
2018-06-08T19:01:56.003Z,84.70
2018-06-08T19:04:25.715Z,85.50
2018-06-08T19:06:54.698Z,85.10
2018-06-08T19:09:23.551Z,85.20
2018-06-08T19:11:52.489Z,85.70
2018-06-08T19:16:50.294Z,86.20
2018-06-08T19:21:47.964Z,86.60
2018-06-08T19:24:17.351Z,86.90
2018-06-08T19:26:47.042Z,87.40
2018-06-08T19:29:16.081Z,87.60
2018-06-08T19:31:45.180Z,88.00
2018-06-08T19:34:14.260Z,88.10
2018-06-08T19:36:43.404Z,88.20
2018-06-08T19:39:13.075Z,88.50
2018-06-08T19:41:42.070Z,89.00
2018-06-08T19:44:11.036Z,89.10
2018-06-08T19:46:39.907Z,89.50
2018-06-08T19:49:08.722Z,89.60
2018-06-08T19:51:38.007Z,90.00
2018-06-08T19:54:07.214Z,90.40
2018-06-08T19:56:36.180Z,90.50
2018-06-08T19:59:05.150Z,90.60
2018-06-08T20:01:34.040Z,90.70
2018-06-08T20:04:03.261Z,90.90
2018-06-08T20:06:32.273Z,91.00
2018-06-08T20:09:01.549Z,91.10
2018-06-08T20:11:31.054Z,91.00
2018-06-08T20:14:00.302Z,91.10
2018-06-08T20:16:29.495Z,91.30
2018-06-08T20:18:58.774Z,91.50
2018-06-08T20:21:28.026Z,91.60
2018-06-08T20:23:58.177Z,91.70
2018-06-08T20:26:27.295Z,91.80
2018-06-08T20:28:56.651Z,91.90
2018-06-08T20:31:25.571Z,92.00
2018-06-08T20:33:54.432Z,92.00
2018-06-08T20:36:23.260Z,92.30
2018-06-08T20:38:52.148Z,92.10
2018-06-08T20:41:21.937Z,92.30
2018-06-08T20:43:50.869Z,92.30
2018-06-08T20:46:19.915Z,92.20
2018-06-08T20:48:48.827Z,92.10
2018-06-08T20:51:17.708Z,92.00
2018-06-08T20:53:46.594Z,92.10
2018-06-08T20:56:15.597Z,92.00
2018-06-08T20:58:44.605Z,92.10
2018-06-08T21:01:13.758Z,92.00
2018-06-08T21:03:42.634Z,92.00
2018-06-08T21:06:12.257Z,92.10
2018-06-08T21:08:41.184Z,92.50
2018-06-08T21:11:10.159Z,92.60
2018-06-08T21:13:39.091Z,92.50
2018-06-08T21:16:08.038Z,92.40
2018-06-08T21:18:36.908Z,92.30
2018-06-08T21:21:05.904Z,92.40
2018-06-08T21:23:34.856Z,92.50
2018-06-08T21:26:03.869Z,92.50
2018-06-08T21:28:32.730Z,92.60
2018-06-08T21:31:01.643Z,92.50
2018-06-08T21:33:30.540Z,92.50
2018-06-08T21:35:59.415Z,92.40
2018-06-08T21:38:28.284Z,92.60
2018-06-08T21:40:57.238Z,92.80
2018-06-08T21:43:26.085Z,92.70
2018-06-08T21:45:54.697Z,92.70
2018-06-08T21:48:23.617Z,92.70
2018-06-08T21:50:52.534Z,92.70
2018-06-08T21:53:21.418Z,92.70
2018-06-08T21:55:50.251Z,92.70
2018-06-08T21:58:19.157Z,92.80
2018-06-08T22:00:48.065Z,92.80
2018-06-08T22:03:16.953Z,92.90
2018-06-08T22:05:45.849Z,92.90
2018-06-08T22:08:14.771Z,92.90
2018-06-08T22:10:43.646Z,93.00
2018-06-08T22:13:12.493Z,93.00
2018-06-08T22:15:41.354Z,93.00
2018-06-08T22:18:10.284Z,93.00
2018-06-08T22:20:39.226Z,93.00
2018-06-08T22:23:08.073Z,93.10
2018-06-08T22:25:36.915Z,93.20
2018-06-08T22:28:05.769Z,93.10
2018-06-08T22:30:34.694Z,93.10
2018-06-08T22:33:03.772Z,93.10
2018-06-08T22:35:32.633Z,93.00
2018-06-08T22:38:01.497Z,93.00
2018-06-08T22:40:30.391Z,93.00
2018-06-08T22:42:59.286Z,93.00
2018-06-08T22:45:28.148Z,93.00
2018-06-08T22:47:57.044Z,93.00
2018-06-08T22:50:25.896Z,93.00
2018-06-08T22:52:54.820Z,93.00
2018-06-08T22:55:23.729Z,93.10
2018-06-08T22:57:52.578Z,93.10
2018-06-08T23:00:21.553Z,93.10
2018-06-08T23:02:50.424Z,93.10
2018-06-08T23:05:19.367Z,93.00
2018-06-08T23:07:48.252Z,93.00
2018-06-08T23:10:17.098Z,93.10
2018-06-08T23:12:46.021Z,93.10
2018-06-08T23:15:14.875Z,93.10
2018-06-08T23:17:43.796Z,93.20
2018-06-08T23:20:12.655Z,93.20
2018-06-08T23:22:41.606Z,93.30
2018-06-08T23:25:10.456Z,93.30
2018-06-08T23:27:39.427Z,93.30
2018-06-08T23:30:08.342Z,93.40
2018-06-08T23:32:37.354Z,93.60
2018-06-08T23:35:06.450Z,93.60
2018-06-08T23:37:35.438Z,93.70
2018-06-08T23:40:04.450Z,93.70
2018-06-08T23:42:33.570Z,93.80
2018-06-08T23:45:02.262Z,93.80
2018-06-08T23:47:31.903Z,93.80
2018-06-08T23:50:00.831Z,93.90
2018-06-08T23:52:29.693Z,93.80
2018-06-08T23:54:58.578Z,93.90
2018-06-08T23:57:27.494Z,94.30
2018-06-08T23:59:56.413Z,94.30
